Time;durP1;ratioP1;P1;durP2;ratioP2;P2;SDS_P1;SDS_P2;PMS_P1;PMS_P2;Temp;Humidity;BMP_temperature;BMP_pressure;BME280_temperature;BME280_humidity;BME280_pressure;Samples;Min_cycle;Max_cycle;Signal;HPM_P1;HPM_P2
2022/07/13 00:01:53;;;;;;;9.32;2.10;;;;;;;18.95;55.32;99194.63;4957997;29;20050;-72
2022/07/13 00:04:20;;;;;;;6.28;1.73;;;;;;;18.91;55.60;99198.63;4956996;28;20062;-73
2022/07/13 00:06:47;;;;;;;11.20;1.90;;;;;;;18.92;55.52;99200.25;4957340;29;20082;-74
2022/07/13 00:09:14;;;;;;;6.82;2.00;;;;;;;18.86;55.33;99196.19;4957319;28;20529;-73
2022/07/13 00:11:41;;;;;;;4.25;1.73;;;;;;;18.83;55.67;99203.41;4957440;28;20055;-74
2022/07/13 00:14:08;;;;;;;8.80;2.00;;;;;;;18.82;56.08;99198.19;4956550;29;20141;-72
2022/07/13 00:16:35;;;;;;;3.50;1.83;;;;;;;18.83;56.06;99203.41;4957322;28;20059;-73
2022/07/13 00:19:02;;;;;;;3.45;1.70;;;;;;;18.84;55.88;99199.41;4957294;28;20057;-74
2022/07/13 00:21:29;;;;;;;7.38;2.00;;;;;;;18.81;55.90;99200.22;4957251;29;20058;-73
2022/07/13 00:23:58;;;;;;;8.25;3.40;;;;;;;18.81;55.87;99200.22;4956951;28;20047;-68
2022/07/13 00:26:25;;;;;;;8.48;2.05;;;;;;;18.78;55.97;99195.38;4957200;29;20134;-72
2022/07/13 00:28:52;;;;;;;5.20;1.80;;;;;;;18.73;55.89;99198.56;4957412;28;20194;-73
2022/07/13 00:31:19;;;;;;;4.82;2.35;;;;;;;18.73;56.17;99192.09;4956900;29;20508;-69
2022/07/13 00:33:46;;;;;;;5.80;1.90;;;;;;;18.73;56.20;99192.91;4957097;28;20054;-68
2022/07/13 00:36:13;;;;;;;6.72;1.65;;;;;;;18.71;56.29;99189.69;4956624;28;20087;-68
2022/07/13 00:38:40;;;;;;;3.35;1.60;;;;;;;18.71;56.41;99197.34;4957014;28;20082;-69
2022/07/13 00:41:07;;;;;;;3.63;1.98;;;;;;;18.69;56.25;99194.91;4957634;29;20074;-68
2022/07/13 00:43:34;;;;;;;2.67;1.52;;;;;;;18.67;56.27;99191.69;4957010;28;20051;-68
2022/07/13 00:46:01;;;;;;;3.65;2.05;;;;;;;18.65;56.24;99196.88;4957024;28;20085;-67
2022/07/13 00:48:30;;;;;;;2.78;1.85;;;;;;;18.68;56.19;99198.91;4955260;29;20055;-68
2022/07/13 00:50:56;;;;;;;6.63;2.10;;;;;;;18.66;56.15;99198.53;4956771;28;20541;-73
2022/07/13 00:53:24;;;;;;;4.07;2.15;;;;;;;18.68;56.34;99196.09;4956808;29;20476;-72
2022/07/13 00:55:51;;;;;;;7.93;1.75;;;;;;;18.67;56.42;99200.13;4956385;28;20051;-73
2022/07/13 00:58:18;;;;;;;4.32;1.77;;;;;;;18.64;56.46;99195.28;4957048;28;20050;-72
2022/07/13 01:00:45;;;;;;;7.47;1.77;;;;;;;18.63;56.52;99196.50;4956344;28;20137;-73
2022/07/13 01:03:12;;;;;;;3.30;1.45;;;;;;;18.64;56.58;99200.91;4956519;28;20142;-75
2022/07/13 01:05:40;;;;;;;3.45;1.88;;;;;;;18.60;56.57;99193.66;4954466;28;20130;-74
2022/07/13 01:08:07;;;;;;;3.78;2.05;;;;;;;18.55;56.79;99192.00;4956445;28;20047;-73
2022/07/13 01:10:34;;;;;;;10.27;1.85;;;;;;;18.49;56.74;99193.59;4970914;28;20061;-72
2022/07/13 01:13:01;;;;;;;3.47;1.70;;;;;;;18.47;56.93;99192.38;4956272;28;20055;-69
2022/07/13 01:15:28;;;;;;;4.35;2.10;;;;;;;18.48;56.82;99186.34;4956347;28;20047;-67
2022/07/13 01:17:55;;;;;;;3.22;1.70;;;;;;;18.50;56.97;99194.41;4956321;28;20431;-68
2022/07/13 01:20:23;;;;;;;3.08;1.90;;;;;;;18.50;56.98;99192.38;4956270;28;20411;-68
2022/07/13 01:22:54;;;;;;;256.10;126.75;;;;;;;18.48;57.02;99194.81;4956152;29;20560;-68
2022/07/13 01:25:22;;;;;;;12.75;6.32;;;;;;;18.48;57.24;99180.72;4955148;29;20048;-68
2022/07/13 01:27:49;;;;;;;6.75;3.42;;;;;;;18.49;57.14;99190.78;4954965;29;20531;-68
2022/07/13 01:30:16;;;;;;;5.55;2.30;;;;;;;18.45;57.21;99181.50;4955854;28;20062;-69
2022/07/13 01:32:45;;;;;;;9.93;2.63;;;;;;;18.45;57.51;99187.13;4955970;28;20058;-68
2022/07/13 01:35:14;;;;;;;7.93;1.83;;;;;;;18.46;57.61;99180.28;4955802;28;20055;-68
2022/07/13 01:37:42;;;;;;;6.28;2.28;;;;;;;18.49;57.40;99182.31;4955884;28;20106;-68
2022/07/13 01:40:10;;;;;;;5.55;2.05;;;;;;;18.52;57.31;99175.91;4956084;28;20051;-68
2022/07/13 01:42:51;;;;;;;7.68;2.20;;;;;;;18.57;57.39;99184.00;4955758;28;20055;-69
2022/07/13 01:45:22;;;;;;;8.07;2.22;;;;;;;18.64;57.15;99181.19;4955621;28;20515;-69
2022/07/13 01:47:53;;;;;;;7.05;2.70;;;;;;;18.73;57.14;99178.00;4956000;28;20086;-69
2022/07/13 01:50:24;;;;;;;4.32;1.70;;;;;;;18.76;56.98;99180.84;4955609;28;20522;-69
2022/07/13 01:52:52;;;;;;;6.13;2.45;;;;;;;18.77;57.15;99182.44;4955717;28;20061;-69
2022/07/13 01:55:20;;;;;;;6.47;2.90;;;;;;;18.72;57.14;99180.03;4955575;28;20055;-69
2022/07/13 01:57:47;;;;;;;6.95;2.08;;;;;;;18.73;57.18;99180.81;4955338;29;20039;-69
2022/07/13 02:00:19;;;;;;;7.57;2.42;;;;;;;18.76;57.23;99180.84;4955453;29;20431;-68
2022/07/13 02:02:48;;;;;;;5.78;2.33;;;;;;;18.80;57.40;99181.66;4955327;28;20047;-68
2022/07/13 02:05:16;;;;;;;5.13;2.33;;;;;;;18.83;57.41;99178.06;4955044;28;20122;-69
2022/07/13 02:07:43;;;;;;;3.70;2.20;;;;;;;18.89;57.34;99184.13;4955399;28;20071;-69
2022/07/13 02:10:11;;;;;;;7.13;2.40;;;;;;;18.98;57.34;99188.19;4955333;28;20047;-69
2022/07/13 02:12:40;;;;;;;9.75;2.50;;;;;;;19.05;57.20;99179.78;4955301;28;20051;-69
2022/07/13 02:15:11;;;;;;;5.45;2.38;;;;;;;19.14;57.19;99176.56;4955320;28;20047;-69
2022/07/13 02:17:39;;;;;;;4.22;2.25;;;;;;;19.20;57.16;99172.97;4953380;28;20047;-69
2022/07/13 02:20:08;;;;;;;7.03;2.72;;;;;;;19.28;56.74;99166.19;4955148;28;20099;-68
2022/07/13 02:22:45;;;;;;;6.43;2.45;;;;;;;19.40;56.55;99160.16;4955321;29;20057;-69
2022/07/13 02:25:15;;;;;;;7.18;3.55;;;;;;;19.49;55.82;99162.56;4953680;29;20050;-69
2022/07/13 02:27:43;;;;;;;8.73;3.13;;;;;;;19.60;55.28;99166.22;4955021;28;20507;-69
2022/07/13 02:30:12;;;;;;;6.60;2.70;;;;;;;19.73;55.19;99162.59;4955144;28;20047;-69
2022/07/13 02:32:39;;;;;;;8.93;3.27;;;;;;;19.79;54.86;99166.63;4954991;28;20075;-69
2022/07/13 02:35:07;;;;;;;7.20;3.10;;;;;;;19.81;54.32;99144.44;4954538;28;20055;-70
2022/07/13 02:37:34;;;;;;;8.02;2.78;;;;;;;19.89;54.23;99160.19;4954896;29;20051;-68
2022/07/13 02:40:01;;;;;;;8.18;2.90;;;;;;;19.89;53.93;99151.72;4954514;28;20420;-69
2022/07/13 02:42:29;;;;;;;6.28;2.75;;;;;;;19.92;53.90;99152.91;4954839;28;20066;-68
2022/07/13 02:44:56;;;;;;;7.50;2.53;;;;;;;19.92;53.33;99152.91;4954389;28;20093;-67
2022/07/13 02:47:23;;;;;;;3.75;2.08;;;;;;;19.93;53.08;99155.31;4955317;28;20043;-67
2022/07/13 02:49:50;;;;;;;4.65;2.20;;;;;;;19.91;52.89;99145.66;4954716;28;20056;-68
2022/07/13 02:52:19;;;;;;;4.88;2.45;;;;;;;19.89;52.43;99143.22;4954625;28;20051;-68
2022/07/13 02:54:46;;;;;;;12.38;2.65;;;;;;;19.89;52.35;99146.06;4969659;28;20166;-68
2022/07/13 02:57:15;;;;;;;7.07;2.60;;;;;;;19.90;52.10;99153.31;4954324;29;20059;-67
2022/07/13 02:59:42;;;;;;;6.88;2.35;;;;;;;19.90;52.06;99150.47;4954623;29;20395;-67
2022/07/13 03:02:09;;;;;;;10.88;2.40;;;;;;;19.93;51.79;99149.69;4954638;28;20055;-67
2022/07/13 03:04:36;;;;;;;8.60;2.80;;;;;;;19.95;51.63;99155.72;4954385;29;20054;-67
2022/07/13 03:07:03;;;;;;;5.40;2.42;;;;;;;19.95;51.32;99157.75;4954319;28;20137;-69
2022/07/13 03:09:30;;;;;;;9.50;2.95;;;;;;;19.95;51.11;99158.56;4954519;29;20062;-68
2022/07/13 03:11:57;;;;;;;7.10;2.60;;;;;;;19.97;51.06;99163.81;4954511;28;20051;-73
2022/07/13 03:14:24;;;;;;;3.90;2.08;;;;;;;19.93;50.54;99160.97;4954547;29;20055;-73
2022/07/13 03:16:51;;;;;;;7.65;3.00;;;;;;;19.95;50.75;99155.72;4954205;28;20051;-73
2022/07/13 03:19:18;;;;;;;6.65;3.05;;;;;;;19.99;50.82;99165.00;4954528;28;20055;-73
2022/07/13 03:21:44;;;;;;;16.95;3.67;;;;;;;20.05;50.59;99167.44;4954349;28;20051;-74
2022/07/13 03:24:11;;;;;;;7.47;2.92;;;;;;;20.05;50.59;99156.13;4954370;28;20081;-75
2022/07/13 03:26:39;;;;;;;6.90;3.30;;;;;;;20.16;50.71;99162.63;4952876;29;20071;-73
2022/07/13 03:29:06;;;;;;;12.80;3.25;;;;;;;20.21;50.62;99171.47;4956302;28;20166;-73
2022/07/13 03:31:32;;;;;;;13.43;3.30;;;;;;;20.25;50.63;99166.63;4958204;28;20051;-72
2022/07/13 03:34:00;;;;;;;16.42;3.90;;;;;;;20.26;50.63;99170.25;4958323;28;20047;-75
2022/07/13 03:36:27;;;;;;;14.23;3.30;;;;;;;20.31;50.30;99164.19;4957732;29;20142;-73
2022/07/13 03:38:53;;;;;;;9.65;3.45;;;;;;;20.32;50.25;99169.44;4956615;29;20047;-73
2022/07/13 03:41:20;;;;;;;7.25;2.67;;;;;;;20.42;49.79;99164.97;4956599;29;20414;-73
2022/07/13 03:43:47;;;;;;;12.07;3.05;;;;;;;20.57;49.46;99166.56;4958059;29;20058;-73
2022/07/13 03:46:14;;;;;;;11.40;3.75;;;;;;;20.76;49.41;99174.56;4957795;28;20593;-69
2022/07/13 03:48:41;;;;;;;8.45;3.20;;;;;;;20.88;48.78;99172.09;4972744;28;20414;-68
2022/07/13 03:51:08;;;;;;;9.25;2.85;;;;;;;20.96;48.27;99168.03;4957883;28;20090;-69
2022/07/13 03:53:35;;;;;;;8.52;2.95;;;;;;;21.03;48.11;99165.19;4957593;29;20102;-69
2022/07/13 03:56:02;;;;;;;11.15;3.20;;;;;;;21.15;48.27;99175.25;4957765;29;20054;-69
2022/07/13 03:58:29;;;;;;;9.20;2.67;;;;;;;21.22;47.89;99175.19;4957758;29;20055;-70
2022/07/13 04:00:56;;;;;;;9.77;3.03;;;;;;;21.26;47.73;99170.34;4957705;28;20047;-69
2022/07/13 04:03:23;;;;;;;10.30;2.60;;;;;;;21.30;47.44;99173.94;4957811;28;20086;-69
2022/07/13 04:05:50;;;;;;;10.13;2.83;;;;;;;21.33;47.45;99175.94;4957499;29;20451;-69
2022/07/13 04:08:17;;;;;;;4.78;2.60;;;;;;;21.37;47.31;99177.53;4957645;29;20055;-69
2022/07/13 04:10:44;;;;;;;14.85;2.90;;;;;;;21.41;47.39;99183.19;4957365;29;20387;-68
2022/07/13 04:13:11;;;;;;;7.13;3.38;;;;;;;21.38;47.70;99172.69;4957676;29;20058;-69
2022/07/13 04:15:38;;;;;;;5.50;2.42;;;;;;;21.40;48.19;99175.88;4957728;28;20414;-68
2022/07/13 04:18:05;;;;;;;8.70;2.90;;;;;;;21.46;48.49;99175.06;4957183;29;20404;-68
2022/07/13 04:20:32;;;;;;;5.95;2.55;;;;;;;21.59;48.38;99161.22;4957614;28;20054;-70
2022/07/13 04:22:59;;;;;;;8.93;2.60;;;;;;;21.73;48.35;99178.91;4955877;29;20051;-69
2022/07/13 04:25:26;;;;;;;10.27;3.17;;;;;;;21.74;48.13;99176.91;4957224;28;20044;-69
2022/07/13 04:27:53;;;;;;;6.57;2.92;;;;;;;21.80;48.28;99177.28;4957310;28;20507;-68
2022/07/13 04:30:20;;;;;;;4.90;2.20;;;;;;;21.84;47.91;99173.19;4957003;28;20110;-70
2022/07/13 04:32:47;;;;;;;6.22;3.25;;;;;;;21.88;47.63;99162.66;4957317;28;20051;-69
2022/07/13 04:35:14;;;;;;;4.97;2.10;;;;;;;22.08;47.31;99166.50;4956671;28;20051;-69
2022/07/13 04:37:43;;;;;;;4.32;1.90;;;;;;;22.20;46.87;99168.81;4956989;28;20569;-70
2022/07/13 04:40:11;;;;;;;9.20;2.90;;;;;;;22.28;46.65;99161.88;4956221;28;20125;-69
2022/07/13 04:42:38;;;;;;;5.97;2.00;;;;;;;22.43;46.44;99163.34;4957017;28;20129;-69
2022/07/13 04:45:05;;;;;;;6.18;2.30;;;;;;;22.56;46.14;99167.25;4956814;28;20075;-68
2022/07/13 04:47:32;;;;;;;8.45;2.92;;;;;;;22.61;46.23;99163.97;4957116;28;20048;-69
2022/07/13 04:49:59;;;;;;;7.43;2.25;;;;;;;22.66;46.07;99157.03;4956809;28;20051;-70
2022/07/13 04:52:26;;;;;;;7.85;2.70;;;;;;;22.66;46.31;99166.38;4956810;29;20050;-68
2022/07/13 04:54:53;;;;;;;9.25;2.20;;;;;;;22.73;45.99;99157.75;4956686;28;20415;-69
2022/07/13 04:57:21;;;;;;;6.53;2.28;;;;;;;22.77;46.21;99160.56;4957400;28;20075;-72
2022/07/13 04:59:48;;;;;;;14.38;2.55;;;;;;;22.88;45.92;99173.38;4956828;28;20059;-71
2022/07/13 05:02:15;;;;;;;12.10;3.08;;;;;;;23.16;45.29;99164.53;4956536;28;20051;-71
2022/07/13 05:04:42;;;;;;;12.32;2.75;;;;;;;23.71;44.10;99166.19;4956401;28;20499;-71
2022/07/13 05:07:10;;;;;;;6.32;2.67;;;;;;;23.76;44.17;99163.66;4956503;28;20077;-71
2022/07/13 05:09:37;;;;;;;10.25;2.90;;;;;;;23.77;44.22;99158.78;4955392;29;20048;-71
2022/07/13 05:12:04;;;;;;;6.03;2.60;;;;;;;23.80;44.21;99157.94;4956221;28;20051;-73
2022/07/13 05:14:35;;;;;;;6.97;3.10;;;;;;;23.83;44.45;99162.75;4956546;28;20062;-72
2022/07/13 05:17:02;;;;;;;6.60;2.67;;;;;;;23.70;44.71;99158.88;4956353;29;20055;-72
2022/07/13 05:19:31;;;;;;;6.10;2.97;;;;;;;23.68;44.77;99153.63;4956511;28;20051;-71
2022/07/13 05:22:00;;;;;;;10.00;2.90;;;;;;;23.85;44.79;99148.91;4954819;29;20418;-72
2022/07/13 05:24:27;;;;;;;10.38;2.80;;;;;;;24.20;44.25;99154.00;4956368;28;20050;-72
2022/07/13 05:26:54;;;;;;;8.60;2.83;;;;;;;24.48;43.73;99148.59;4954608;29;20051;-71
2022/07/13 05:29:21;;;;;;;4.55;2.53;;;;;;;24.68;43.16;99157.19;4954729;29;20075;-70
2022/07/13 05:31:48;;;;;;;7.70;3.78;;;;;;;24.78;42.73;99150.50;4956441;28;20055;-71
2022/07/13 05:34:15;;;;;;;4.90;2.47;;;;;;;24.91;41.89;99149.41;4954886;29;20562;-71
2022/07/13 05:36:42;;;;;;;5.63;2.40;;;;;;;24.89;42.13;99139.69;4955588;28;20083;-71
2022/07/13 05:39:09;;;;;;;10.68;2.33;;;;;;;24.95;41.78;99138.75;4955732;28;20058;-72
2022/07/13 05:41:36;;;;;;;11.57;2.58;;;;;;;25.16;41.74;99136.69;4955716;28;20054;-72
2022/07/13 05:44:03;;;;;;;4.38;1.85;;;;;;;25.39;41.23;99139.44;4955660;28;20075;-72
2022/07/13 05:46:31;;;;;;;4.80;2.20;;;;;;;25.37;40.95;99128.50;4955714;28;20067;-71
2022/07/13 05:48:58;;;;;;;3.78;1.95;;;;;;;25.47;40.82;99133.16;4955592;29;20521;-71
2022/07/13 05:51:25;;;;;;;10.45;1.90;;;;;;;25.53;39.81;99122.84;4955649;28;20059;-71
2022/07/13 05:54:01;;;;;;;8.00;2.15;;;;;;;25.63;39.31;99126.66;4956018;28;20047;-72
2022/07/13 05:56:48;;;;;;;4.88;1.92;;;;;;;25.35;39.71;99128.16;4955563;29;20070;-72
2022/07/13 05:59:15;;;;;;;9.95;1.73;;;;;;;25.16;40.53;99122.47;4955049;28;20051;-71
2022/07/13 06:01:42;;;;;;;4.45;1.70;;;;;;;25.24;40.78;99133.25;4952912;28;20043;-71
2022/07/13 06:04:10;;;;;;;4.07;2.03;;;;;;;25.48;40.40;99129.06;4953634;29;20039;-72
2022/07/13 06:06:37;;;;;;;5.72;2.00;;;;;;;25.98;39.63;99135.19;4954596;29;20055;-71
2022/07/13 06:09:04;;;;;;;6.68;2.28;;;;;;;26.72;37.97;99125.44;4955470;28;20138;-71
2022/07/13 06:11:31;;;;;;;8.60;2.20;;;;;;;27.90;36.14;99124.28;4954267;29;20078;-72
2022/07/13 06:13:58;;;;;;;5.05;1.75;;;;;;;29.66;33.02;99119.41;4955302;28;20051;-72
2022/07/13 06:16:25;;;;;;;4.45;1.25;;;;;;;32.42;28.29;99129.25;4955281;29;20447;-72
2022/07/13 06:18:52;;;;;;;7.18;1.83;;;;;;;35.63;23.11;99121.50;4954164;28;20138;-73
2022/07/13 06:21:19;;;;;;;5.05;1.77;;;;;;;37.96;20.27;99119.13;4954805;28;20054;-72
2022/07/13 06:23:46;;;;;;;3.33;1.27;;;;;;;39.24;18.86;99126.16;4955074;28;20055;-72
2022/07/13 06:26:13;;;;;;;8.32;2.00;;;;;;;39.27;18.62;99131.69;4953940;28;20067;-71
2022/07/13 06:28:39;;;;;;;7.93;1.42;;;;;;;36.79;20.71;99139.75;4953805;28;20055;-71
2022/07/13 06:31:06;;;;;;;3.80;1.58;;;;;;;34.72;22.47;99134.69;4953343;29;20047;-71
2022/07/13 06:33:35;;;;;;;7.60;1.50;;;;;;;33.56;23.84;99123.44;4954912;28;20055;-71
2022/07/13 06:36:07;;;;;;;7.70;1.50;;;;;;;31.52;26.52;99124.69;4954539;28;20058;-72
2022/07/13 06:38:34;;;;;;;5.30;1.48;;;;;;;29.92;28.35;99131.44;4954808;28;20051;-71
2022/07/13 06:41:06;;;;;;;2.63;1.73;;;;;;;28.66;30.21;99122.88;4953347;28;20070;-71
2022/07/13 06:43:32;;;;;;;4.45;2.00;;;;;;;27.93;31.57;99118.47;4954804;28;20459;-72
2022/07/13 06:46:01;;;;;;;3.88;1.75;;;;;;;28.27;31.76;99120.56;4953716;28;20051;-72
2022/07/13 06:48:28;;;;;;;5.00;1.83;;;;;;;29.54;29.36;99116.63;4954349;28;20446;-72
2022/07/13 06:50:55;;;;;;;8.70;2.38;;;;;;;29.36;30.13;99111.59;4953320;28;20051;-73
2022/07/13 06:53:22;;;;;;;4.35;1.95;;;;;;;29.60;30.04;99121.25;4953861;28;20051;-72
2022/07/13 06:55:49;;;;;;;3.50;1.95;;;;;;;31.21;27.55;99109.75;4954002;28;20051;-72
2022/07/13 06:58:16;;;;;;;6.53;1.90;;;;;;;33.48;24.30;99114.38;4954114;29;20058;-72
2022/07/13 07:00:43;;;;;;;5.15;1.88;;;;;;;35.83;20.54;99112.75;4952587;29;20047;-72
2022/07/13 07:03:10;;;;;;;5.68;1.42;;;;;;;38.88;17.34;99119.44;4949400;28;20133;-72
2022/07/13 07:05:37;;;;;;;3.88;1.40;;;;;;;41.66;14.85;99128.63;4954008;28;20047;-72
2022/07/13 07:08:04;;;;;;;4.78;1.88;;;;;;;42.53;14.45;99105.03;4953126;29;20139;-71
2022/07/13 07:10:32;;;;;;;13.02;2.00;;;;;;;44.90;12.77;99130.66;4953844;29;20055;-72
2022/07/13 07:13:05;;;;;;;11.55;1.90;;;;;;;46.08;11.38;99127.16;4949484;29;20077;-72
2022/07/13 07:15:32;;;;;;;3.85;1.23;;;;;;;46.28;11.25;99112.31;4950405;28;20061;-72
2022/07/13 07:17:59;;;;;;;3.55;1.20;;;;;;;47.34;10.21;99120.91;4950726;28;20046;-72
2022/07/13 07:20:34;;;;;;;3.45;1.58;;;;;;;47.72;9.89;99112.66;4950329;29;20404;-72
2022/07/13 07:23:01;;;;;;;5.93;1.43;;;;;;;45.31;11.10;99115.78;4952741;28;20400;-72
2022/07/13 07:25:29;;;;;;;5.80;1.58;;;;;;;40.99;14.42;99122.13;4953754;28;20055;-71
2022/07/13 07:27:56;;;;;;;2.53;1.33;;;;;;;43.56;12.32;99125.97;4953838;28;20051;-72
2022/07/13 07:30:23;;;;;;;4.03;1.70;;;;;;;46.00;10.76;99118.34;4953420;28;20047;-73
2022/07/13 07:32:50;;;;;;;3.25;1.23;;;;;;;47.76;9.71;99101.22;4952748;29;20106;-73
2022/07/13 07:35:17;;;;;;;6.03;1.48;;;;;;;49.65;8.55;99117.84;4953256;29;20153;-72
2022/07/13 07:37:44;;;;;;;5.05;1.52;;;;;;;50.61;7.53;99113.91;4954071;29;20047;-73
2022/07/13 07:40:11;;;;;;;2.42;1.20;;;;;;;50.91;7.38;99116.31;4954016;28;20075;-73
2022/07/13 07:42:39;;;;;;;7.97;1.42;;;;;;;52.05;6.41;99107.28;4953737;28;20051;-73
2022/07/13 07:45:08;;;;;;;3.33;1.40;;;;;;;53.28;5.98;99107.16;4953458;28;20047;-72
2022/07/13 07:47:36;;;;;;;2.17;1.17;;;;;;;53.44;6.22;99102.28;4952897;28;20114;-72
2022/07/13 07:50:05;;;;;;;9.57;1.52;;;;;;;54.68;5.16;99104.53;4953239;29;20154;-73
2022/07/13 07:52:32;;;;;;;3.13;1.60;;;;;;;56.29;4.20;99114.16;4951438;28;20062;-73
2022/07/13 07:55:19;;;;;;;3.35;1.63;;;;;;;56.26;4.48;99103.53;4952656;28;20098;-72
2022/07/13 07:57:47;;;;;;;5.57;2.03;;;;;;;55.90;4.47;99107.44;4952460;28;20569;-73
2022/07/13 08:00:14;;;;;;;2.53;1.52;;;;;;;56.08;4.45;99111.47;4953506;29;20530;-73
2022/07/13 08:02:43;;;;;;;5.18;1.67;;;;;;;56.11;4.56;99110.16;4952100;28;20063;-72
2022/07/13 08:05:10;;;;;;;3.22;1.60;;;;;;;56.07;4.34;99115.88;4951881;29;20057;-70
2022/07/13 08:07:44;;;;;;;2.47;1.70;;;;;;;55.35;4.15;99107.19;4953718;28;20047;-67
2022/07/13 08:10:12;;;;;;;6.25;1.60;;;;;;;54.19;4.58;99093.91;4953071;28;20511;-68
2022/07/13 08:12:58;;;;;;;3.80;1.65;;;;;;;54.75;4.73;99097.50;4953202;28;20133;-67
2022/07/13 08:15:25;;;;;;;3.45;1.58;;;;;;;55.09;3.79;99101.81;4954380;28;20079;-68
2022/07/13 08:17:52;;;;;;;1.98;1.50;;;;;;;55.38;4.00;99090.97;4957739;28;20141;-68
2022/07/13 08:20:19;;;;;;;2.75;1.55;;;;;;;56.23;3.62;99086.91;4955276;28;20055;-68
2022/07/13 08:22:49;;;;;;;2.00;1.40;;;;;;;56.61;3.43;99095.03;4970299;28;20057;-69
2022/07/13 08:25:17;;;;;;;6.35;1.70;;;;;;;56.06;4.08;99087.44;4956713;29;20051;-69
2022/07/13 08:27:43;;;;;;;5.32;1.88;;;;;;;56.29;4.01;99090.25;4957213;28;20134;-69
2022/07/13 08:30:11;;;;;;;4.63;1.70;;;;;;;56.00;3.89;99081.09;4956607;28;20075;-69
2022/07/13 08:32:39;;;;;;;3.88;1.60;;;;;;;56.67;3.85;99081.19;4956202;28;20138;-71
2022/07/13 08:40:42;;;;;;;12.30;1.90;;;;;;;57.08;3.47;99087.09;4950886;29;20460;-69
2022/07/13 08:43:09;;;;;;;5.47;1.50;;;;;;;54.75;4.17;99067.69;4957189;28;20078;-69
2022/07/13 08:45:37;;;;;;;4.55;1.40;;;;;;;48.76;7.17;99059.25;4954470;29;20101;-70
2022/07/13 08:48:13;;;;;;;;;;;;;;;44.83;10.19;99060.94;4956652;28;20043;-70
2022/07/13 08:50:43;;;;;;;3.65;1.20;;;;;;;44.82;10.34;99050.56;4955004;28;19926;-69
2022/07/13 08:53:10;;;;;;;3.28;1.85;;;;;;;46.10;9.51;99054.63;4955594;28;20051;-69
2022/07/13 08:55:38;;;;;;;15.45;5.85;;;;;;;50.17;7.30;99051.91;4954621;29;20095;-69
2022/07/13 08:58:05;;;;;;;6.95;1.60;;;;;;;53.31;5.47;99053.09;4956281;28;20050;-69
2022/07/13 09:00:33;;;;;;;2.38;1.10;;;;;;;54.81;4.77;99046.41;4956184;28;20138;-69
2022/07/13 09:03:00;;;;;;;8.05;1.20;;;;;;;54.82;4.29;99042.81;4955313;28;20050;-69
2022/07/13 09:05:29;;;;;;;;;;;;;;;49.85;6.59;99042.56;4955014;28;20498;-69
2022/07/13 09:08:10;;;;;;;4.43;1.60;;;;;;;52.06;5.55;99037.56;4955072;28;20033;-69
2022/07/13 09:11:01;;;;;;;2.70;1.30;;;;;;;53.65;5.77;99045.69;4954709;29;20057;-69
2022/07/13 09:13:38;;;;;;;3.67;1.30;;;;;;;54.01;4.67;99045.84;4955212;29;20075;-69
2022/07/13 09:16:22;;;;;;;4.18;1.58;;;;;;;55.42;4.43;99045.63;4954606;28;20063;-69
2022/07/13 09:19:08;;;;;;;3.50;1.50;;;;;;;56.32;4.02;99062.00;4955590;28;20161;-69
2022/07/13 09:21:35;;;;;;;5.22;1.88;;;;;;;57.04;3.78;99059.97;4953319;28;20489;-69
2022/07/13 09:24:03;;;;;;;4.10;1.63;;;;;;;57.30;3.56;99051.56;4954884;28;20055;-69
2022/07/13 09:26:44;;;;;;;2.53;1.63;;;;;;;58.33;3.51;99052.94;4953684;28;20050;-70
2022/07/13 09:29:12;;;;;;;2.90;1.65;;;;;;;58.07;3.29;99051.72;4951012;29;20456;-69
2022/07/13 09:31:54;;;;;;;5.13;1.98;;;;;;;58.47;2.63;99044.63;4954560;28;20467;-68
2022/07/13 09:34:51;;;;;;;3.92;2.28;;;;;;;57.91;3.61;99038.94;4952165;29;20126;-69
2022/07/13 09:37:20;;;;;;;9.10;2.15;;;;;;;57.75;3.31;99041.16;4953919;28;20054;-69
2022/07/13 09:40:09;;;;;;;4.68;1.55;;;;;;;53.27;4.94;99031.25;4950938;29;20047;-69
2022/07/13 09:42:40;;;;;;;28.02;21.58;;;;;;;49.38;6.80;99015.09;4953608;29;20450;-69
2022/07/13 09:47:57;;;;;;;3.63;1.42;;;;;;;42.33;10.92;99015.00;4954953;28;20507;-69
2022/07/13 09:50:36;;;;;;;5.15;1.50;;;;;;;40.91;11.86;99007.38;4954307;28;20057;-70
2022/07/13 09:53:22;;;;;;;2.88;1.05;;;;;;;39.33;12.92;99010.16;4953988;28;20501;-69
2022/07/13 09:55:51;;;;;;;5.57;1.02;;;;;;;37.18;14.69;99007.97;4954254;29;20138;-69
2022/07/13 09:58:37;;;;;;;2.70;1.40;;;;;;;35.17;16.63;98996.41;4955704;28;20130;-68
2022/07/13 10:01:04;;;;;;;5.85;2.38;;;;;;;34.36;17.78;99007.31;4955180;28;22979;-68
2022/07/13 10:03:32;;;;;;;5.15;1.00;;;;;;;33.76;17.77;98992.84;4955434;28;20053;-68
2022/07/13 10:06:01;;;;;;;2.88;0.93;;;;;;;32.94;18.76;99001.72;4955180;29;20047;-68
2022/07/13 10:08:28;;;;;;;2.50;1.10;;;;;;;32.25;19.48;98989.84;4955337;29;20138;-68
2022/07/13 10:10:55;;;;;;;2.72;1.20;;;;;;;31.79;19.69;98997.97;4955168;29;20054;-68
2022/07/13 10:13:23;;;;;;;2.65;1.00;;;;;;;31.65;20.02;98992.97;4954226;29;20063;-69
2022/07/13 10:15:50;;;;;;;8.68;1.23;;;;;;;31.55;20.37;98988.53;4955127;29;20047;-68
2022/07/13 10:18:22;;;;;;;2.90;0.90;;;;;;;31.35;20.89;98996.97;4954952;29;20097;-68
2022/07/13 10:21:01;;;;;;;2.58;1.15;;;;;;;31.21;20.92;98992.69;4954227;29;20105;-68
2022/07/13 10:23:35;;;;;;;2.35;0.93;;;;;;;31.11;21.36;98987.47;4953175;28;20050;-68
2022/07/13 10:26:25;;;;;;;1.73;0.90;;;;;;;30.29;21.69;98994.59;4953074;28;20043;-67
2022/07/13 10:29:09;;;;;;;2.88;1.08;;;;;;;30.12;21.98;98992.03;4953714;28;20057;-68
2022/07/13 10:31:39;;;;;;;3.30;1.20;;;;;;;29.92;22.10;98990.88;4950663;29;20459;-68
2022/07/13 10:34:07;;;;;;;;;;;;;;;29.56;22.27;98976.47;4952766;29;20526;-68
2022/07/13 10:36:55;;;;;;;2.72;1.00;;;;;;;29.43;22.67;98990.13;4951202;29;19933;-68
2022/07/13 10:39:24;;;;;;;1.40;0.80;;;;;;;29.11;23.26;98979.19;4951424;28;20043;-68
2022/07/13 10:42:01;;;;;;;2.45;1.05;;;;;;;28.77;23.71;98988.69;4950815;28;20058;-67
2022/07/13 10:44:39;;;;;;;2.38;1.02;;;;;;;28.31;24.17;98978.19;4952298;28;20059;-68
2022/07/13 10:47:08;;;;;;;4.80;1.10;;;;;;;28.09;24.58;98983.06;4952183;28;20043;-68
2022/07/13 10:49:41;;;;;;;1.77;1.00;;;;;;;28.06;24.76;98972.56;4953962;28;20490;-68
2022/07/13 10:52:21;;;;;;;9.70;3.72;;;;;;;27.91;24.98;98972.28;4951790;28;20070;-67
2022/07/13 10:55:09;;;;;;;3.55;1.65;;;;;;;27.91;25.32;98972.28;4953030;29;20443;-68
2022/07/13 10:57:44;;;;;;;2.25;1.15;;;;;;;28.04;25.43;98958.72;4952299;29;20564;-68
2022/07/13 11:00:20;;;;;;;5.35;1.10;;;;;;;28.11;25.75;98969.09;4953651;29;20051;-67
2022/07/13 11:02:50;;;;;;;5.90;1.30;;;;;;;28.00;25.65;98962.97;4954215;28;20047;-71
2022/07/13 11:05:30;;;;;;;4.35;1.20;;;;;;;27.82;25.89;98955.00;4954296;28;20400;-71
2022/07/13 11:07:58;;;;;;;2.38;1.10;;;;;;;27.68;26.63;98952.63;4952230;28;20675;-70
2022/07/13 11:10:45;;;;;;;3.50;1.20;;;;;;;27.62;26.77;98954.50;4950867;29;20092;-71
2022/07/13 11:13:15;;;;;;;1.75;1.00;;;;;;;27.56;27.13;98962.06;4951802;29;20055;-70
2022/07/13 11:15:47;;;;;;;3.67;1.30;;;;;;;27.79;26.75;98967.38;4953154;28;20058;-71
2022/07/13 11:18:22;;;;;;;3.70;1.20;;;;;;;27.96;26.73;98950.88;4953470;29;20414;-71
2022/07/13 11:21:05;;;;;;;5.68;1.05;;;;;;;27.90;26.97;98956.38;4952750;29;20043;-71
2022/07/13 11:26:46;;;;;;;5.82;3.15;;;;;;;27.69;27.23;98947.72;4945211;29;20126;-71
2022/07/13 11:29:35;;;;;;;3.25;1.45;;;;;;;28.05;27.14;98946.03;4949126;29;20051;-71
2022/07/13 11:32:03;;;;;;;6.68;1.27;;;;;;;28.52;26.57;98936.53;4954531;28;20472;-72
2022/07/13 11:34:30;;;;;;;4.05;1.50;;;;;;;28.80;26.58;98947.66;4950714;28;20136;-72
2022/07/13 11:37:01;;;;;;;2.47;1.02;;;;;;;28.65;26.25;98946.63;4954015;28;20146;-70
2022/07/13 11:39:37;;;;;;;5.60;1.92;;;;;;;28.47;26.54;98946.50;4954589;28;20043;-71
2022/07/13 11:42:06;;;;;;;4.57;1.15;;;;;;;28.28;27.07;98936.19;4952754;28;20069;-72
2022/07/13 11:44:35;;;;;;;5.00;1.10;;;;;;;28.29;27.11;98943.50;4953271;29;20055;-71
2022/07/13 11:47:08;;;;;;;1.90;1.05;;;;;;;28.41;27.41;98948.34;4952644;28;20107;-72
2022/07/13 11:49:50;;;;;;;2.35;1.00;;;;;;;28.49;26.87;98944.00;4952391;28;20055;-72
2022/07/13 11:52:23;;;;;;;1.80;1.00;;;;;;;28.71;26.18;98944.75;4951593;28;20093;-68
2022/07/13 11:55:02;;;;;;;3.28;1.00;;;;;;;28.84;26.00;98934.00;4953448;29;20052;-70
2022/07/13 11:57:32;;;;;;;2.20;1.27;;;;;;;29.04;26.07;98930.75;4952683;29;20058;-71